Time;durP1;ratioP1;P1;durP2;ratioP2;P2;SDS_P1;SDS_P2;PMS_P1;PMS_P2;Temp;Humidity;BMP_temperature;BMP_pressure;BME280_temperature;BME280_humidity;BME280_pressure;Samples;Min_cycle;Max_cycle;Signal;HPM_P1;HPM_P2
2022/01/31 00:01:07;;;;;;;35.65;6.43;;;;;;;2.56;88.48;100762.84;5050667;28;20080;-80
2022/01/31 00:03:34;;;;;;;25.20;4.20;;;;;;;2.57;88.63;100754.78;5050665;28;20039;-82
2022/01/31 00:06:01;;;;;;;24.80;4.20;;;;;;;2.52;88.89;100757.75;5050389;28;20025;-83
2022/01/31 00:08:26;;;;;;;34.30;4.90;;;;;;;2.48;89.15;100750.19;5049224;28;20033;-82
2022/01/31 00:10:52;;;;;;;34.13;4.57;;;;;;;2.50;89.17;100756.19;5049799;28;20043;-81
2022/01/31 00:13:26;;;;;;;40.45;8.43;;;;;;;2.52;89.04;100757.75;5049831;28;20496;-82
2022/01/31 00:15:57;;;;;;;36.92;6.95;;;;;;;2.47;89.71;100749.34;5048499;28;20041;-81
2022/01/31 00:18:22;;;;;;;26.02;6.15;;;;;;;2.46;89.77;100746.84;5048444;28;20048;-79
2022/01/31 00:20:48;;;;;;;23.90;5.18;;;;;;;2.43;90.22;100747.88;5050019;28;20029;-80
2022/01/31 00:23:13;;;;;;;46.33;7.80;;;;;;;2.37;90.50;100729.06;5035541;28;20131;-81
2022/01/31 00:25:39;;;;;;;30.27;6.60;;;;;;;2.38;90.74;100728.09;5052074;28;20047;-81
2022/01/31 00:28:04;;;;;;;23.87;6.17;;;;;;;2.42;90.84;100724.28;5052624;28;20652;-82
2022/01/31 00:30:29;;;;;;;42.83;6.88;;;;;;;2.42;91.20;100730.41;5052533;28;20402;-81
2022/01/31 00:32:55;;;;;;;37.73;5.47;;;;;;;2.36;91.32;100709.75;5052328;28;20036;-82
2022/01/31 00:35:20;;;;;;;27.47;5.20;;;;;;;2.41;91.83;100714.69;5052086;28;20048;-81
2022/01/31 00:37:46;;;;;;;22.73;5.45;;;;;;;2.35;92.06;100708.06;5052264;28;20271;-82
2022/01/31 00:40:12;;;;;;;44.78;5.93;;;;;;;2.30;92.10;100697.88;5052518;28;20363;-82
2022/01/31 00:42:38;;;;;;;39.20;7.45;;;;;;;2.27;92.48;100695.47;5052322;28;20128;-79
2022/01/31 00:45:20;;;;;;;36.90;6.53;;;;;;;2.32;92.62;100684.59;5052256;28;20107;-80
2022/01/31 00:47:50;;;;;;;29.02;6.30;;;;;;;2.33;92.91;100675.72;5052101;28;20399;-82
2022/01/31 00:50:18;;;;;;;38.47;6.15;;;;;;;2.31;93.05;100653.91;5035555;28;20037;-82
2022/01/31 00:52:45;;;;;;;42.33;6.20;;;;;;;2.26;93.12;100646.34;5035441;28;20056;-81
2022/01/31 00:55:13;;;;;;;35.13;7.05;;;;;;;2.17;93.52;100627.72;5051652;28;20549;-81
2022/01/31 00:57:40;;;;;;;31.52;5.63;;;;;;;2.17;93.59;100620.66;5052001;28;20037;-81
2022/01/31 01:00:07;;;;;;;44.38;7.55;;;;;;;2.11;93.83;100614.06;5059936;28;20032;-82
2022/01/31 01:02:33;;;;;;;23.83;6.40;;;;;;;2.17;94.05;100617.19;5088916;28;20453;-82
2022/01/31 01:05:00;;;;;;;34.40;5.95;;;;;;;2.20;93.84;100606.44;5085000;28;20398;-82
2022/01/31 01:07:26;;;;;;;29.57;6.23;;;;;;;2.19;94.00;100607.41;5072355;28;20086;-82
2022/01/31 01:09:51;;;;;;;27.57;6.17;;;;;;;2.20;94.01;100598.53;5072256;28;20269;-81
2022/01/31 01:12:18;;;;;;;35.17;5.95;;;;;;;2.22;94.14;100602.72;5071924;28;20071;-80
2022/01/31 01:14:45;;;;;;;40.85;5.45;;;;;;;2.23;94.04;100593.88;5071785;28;20032;-82
2022/01/31 01:17:11;;;;;;;34.63;5.65;;;;;;;2.20;94.04;100580.09;5071592;28;20674;-81
2022/01/31 01:19:36;;;;;;;32.03;6.35;;;;;;;2.14;94.23;100573.50;5072067;28;20024;-82
2022/01/31 01:22:03;;;;;;;37.85;5.25;;;;;;;2.24;94.41;100571.00;5088896;28;20567;-78
2022/01/31 01:24:28;;;;;;;43.33;7.78;;;;;;;2.20;94.61;100564.28;5071905;28;20477;-82
2022/01/31 01:26:54;;;;;;;50.03;6.47;;;;;;;2.14;94.53;100541.88;5055259;28;20035;-81
2022/01/31 01:29:22;;;;;;;35.45;6.95;;;;;;;2.17;94.57;100540.81;5071533;28;20321;-80
2022/01/31 01:31:50;;;;;;;38.50;5.43;;;;;;;2.14;94.51;100541.06;5071890;28;20118;-80
2022/01/31 01:34:20;;;;;;;38.63;7.35;;;;;;;2.04;94.88;100531.19;5071664;28;20043;-82
2022/01/31 01:36:47;;;;;;;38.58;6.15;;;;;;;2.09;95.06;100534.31;5071580;28;20115;-81
2022/01/31 01:39:12;;;;;;;25.70;5.25;;;;;;;2.04;94.87;100512.75;5071162;28;20053;-80
2022/01/31 01:41:38;;;;;;;36.72;6.63;;;;;;;1.98;94.73;100494.75;5071287;28;20127;-82
2022/01/31 01:44:04;;;;;;;48.05;7.35;;;;;;;1.99;94.80;100487.69;5071461;28;20158;-81
2022/01/31 01:46:30;;;;;;;36.63;6.32;;;;;;;1.94;94.99;100484.56;5071653;28;20084;-81
2022/01/31 01:48:56;;;;;;;55.10;8.48;;;;;;;1.87;95.12;100481.53;5071740;28;20033;-81
2022/01/31 01:51:22;;;;;;;47.28;8.40;;;;;;;1.89;95.09;100484.91;5088175;28;20551;-80
2022/01/31 01:53:47;;;;;;;33.63;5.35;;;;;;;1.97;94.96;100498.38;5071521;28;20382;-80
2022/01/31 01:56:14;;;;;;;42.63;6.90;;;;;;;1.98;94.80;100488.66;5071317;28;20033;-80
2022/01/31 01:58:43;;;;;;;36.97;6.47;;;;;;;1.97;94.55;100477.31;5071457;28;20063;-82
2022/01/31 02:01:11;;;;;;;45.20;6.20;;;;;;;1.95;94.38;100460.78;5071349;28;20035;-82
2022/01/31 02:03:47;;;;;;;44.60;5.75;;;;;;;1.97;94.38;100456.25;5055901;28;20029;-81
2022/01/31 02:06:13;;;;;;;28.00;5.45;;;;;;;1.99;94.17;100448.19;5071683;28;20047;-81
2022/01/31 02:08:43;;;;;;;38.42;5.18;;;;;;;1.96;94.00;100428.22;5071177;28;20128;-82
2022/01/31 02:11:12;;;;;;;30.95;5.80;;;;;;;1.97;93.97;100413.28;5054715;28;20041;-81
2022/01/31 02:13:42;;;;;;;35.22;6.72;;;;;;;1.92;93.47;100395.19;5071213;28;20021;-81
2022/01/31 02:16:41;;;;;;;44.33;6.68;;;;;;;2.03;93.11;100384.66;5028009;28;20040;-82
2022/01/31 02:19:15;;;;;;;30.13;5.00;;;;;;;1.90;92.58;100349.72;5071843;28;20513;-83
2022/01/31 02:21:55;;;;;;;38.40;5.63;;;;;;;1.89;92.67;100356.75;5056288;28;20390;-81
2022/01/31 02:24:39;;;;;;;41.42;6.68;;;;;;;1.81;93.06;100351.22;5070945;28;20190;-81
2022/01/31 02:27:29;;;;;;;35.22;7.25;;;;;;;1.92;93.12;100357.47;5056207;28;20040;-83
2022/01/31 02:29:55;;;;;;;34.25;6.55;;;;;;;1.87;93.06;100339.38;5054376;28;20035;-82
2022/01/31 02:32:22;;;;;;;;;;;;;;;1.83;93.18;100340.59;5071829;28;20017;-84
2022/01/31 02:34:52;;;;;;;24.60;5.72;;;;;;;1.82;93.28;100341.53;5087372;28;19950;-83
2022/01/31 02:37:19;;;;;;;29.90;5.57;;;;;;;1.84;93.27;100344.91;5071148;28;20039;-80
2022/01/31 02:39:45;;;;;;;36.58;5.55;;;;;;;1.75;93.43;100335.88;5070969;28;20115;-82
2022/01/31 02:42:13;;;;;;;36.50;6.00;;;;;;;1.75;93.51;100328.00;5054634;28;20032;-79
2022/01/31 02:44:43;;;;;;;33.50;7.43;;;;;;;1.79;93.72;100331.25;5080682;28;20132;-82
2022/01/31 02:47:18;;;;;;;42.25;8.50;;;;;;;1.75;93.52;100319.25;5051276;28;20028;-80
2022/01/31 02:49:53;;;;;;;34.15;6.82;;;;;;;1.73;93.71;100321.16;5088156;28;20427;-81
2022/01/31 02:52:20;;;;;;;34.58;7.45;;;;;;;1.82;93.68;100320.47;5071062;28;20037;-82
2022/01/31 02:54:46;;;;;;;38.20;7.28;;;;;;;1.86;93.49;100319.28;5070712;28;20027;-81
2022/01/31 02:57:12;;;;;;;23.30;5.45;;;;;;;1.86;93.34;100298.25;5071316;28;20028;-82
2022/01/31 02:59:38;;;;;;;38.45;6.55;;;;;;;1.79;93.34;100275.97;5071235;28;20143;-82
2022/01/31 03:02:05;;;;;;;37.72;6.78;;;;;;;1.65;93.28;100245.44;5088475;28;20478;-83
2022/01/31 03:04:31;;;;;;;32.55;5.78;;;;;;;1.75;93.05;100251.66;5088072;28;20052;-83
2022/01/31 03:06:58;;;;;;;37.47;6.47;;;;;;;1.66;93.58;100245.34;5087026;28;20032;-83
2022/01/31 03:09:25;;;;;;;31.45;6.82;;;;;;;1.64;93.54;100249.88;5071459;28;20059;-82
2022/01/31 03:11:52;;;;;;;44.08;7.38;;;;;;;1.66;93.99;100242.72;5070972;28;20031;-80
2022/01/31 03:14:21;;;;;;;34.38;6.72;;;;;;;1.74;93.83;100251.81;5071277;28;20028;-83
2022/01/31 03:16:51;;;;;;;45.72;5.97;;;;;;;1.66;94.05;100221.66;5071348;28;20036;-81
2022/01/31 03:19:21;;;;;;;31.90;5.63;;;;;;;1.62;94.27;100214.09;5088008;28;20410;-82
2022/01/31 03:21:52;;;;;;;49.28;7.78;;;;;;;1.59;94.20;100198.53;5087635;28;20028;-83
2022/01/31 03:24:18;;;;;;;37.65;6.30;;;;;;;1.51;94.03;100187.78;5070738;28;20043;-81
2022/01/31 03:26:44;;;;;;;37.45;6.88;;;;;;;1.57;94.54;100197.81;5088273;28;20085;-83
2022/01/31 03:29:13;;;;;;;29.95;5.10;;;;;;;1.52;94.72;100171.84;5070731;28;20048;-83
2022/01/31 03:31:40;;;;;;;57.70;10.45;;;;;;;1.49;95.00;100177.38;5086892;28;20385;-82
2022/01/31 03:34:05;;;;;;;31.83;7.53;;;;;;;1.55;95.24;100169.00;5069807;28;20119;-82
2022/01/31 03:36:31;;;;;;;35.25;6.68;;;;;;;1.56;94.80;100156.69;5087052;28;20059;-82
2022/01/31 03:38:56;;;;;;;39.97;6.72;;;;;;;1.71;94.85;100165.16;5086991;28;20033;-82
2022/01/31 03:41:22;;;;;;;33.45;7.32;;;;;;;1.66;94.45;100144.47;5087030;28;20024;-82
2022/01/31 03:43:48;;;;;;;;;;;;;;;1.64;94.36;100149.03;5071253;28;20498;-83
2022/01/31 03:46:14;;;;;;;39.50;6.28;;;;;;;1.64;94.59;100144.63;5072233;28;19912;-83
2022/01/31 03:48:41;;;;;;;33.30;6.00;;;;;;;1.51;94.80;100133.38;5073672;28;20095;-83
2022/01/31 03:51:17;;;;;;;24.98;6.10;;;;;;;1.38;95.64;100144.00;5078595;28;20113;-82
2022/01/31 03:53:43;;;;;;;37.58;5.80;;;;;;;1.15;96.45;100137.88;5069660;28;20024;-83
2022/01/31 03:56:09;;;;;;;36.13;5.90;;;;;;;1.16;97.45;100151.84;5070601;28;20436;-82
2022/01/31 03:58:49;;;;;;;37.38;6.55;;;;;;;1.13;98.23;100152.94;5074423;28;20047;-83
2022/01/31 04:01:15;;;;;;;36.15;7.32;;;;;;;1.11;99.19;100161.88;5064314;22;20033;-80
2022/01/31 04:03:40;;;;;;;33.00;6.40;;;;;;;1.01;99.98;100153.88;5036791;28;20028;-81
2022/01/31 04:06:06;;;;;;;39.93;6.47;;;;;;;0.83;100.00;100140.31;5037198;28;20041;-81
2022/01/31 04:08:31;;;;;;;54.63;6.20;;;;;;;0.84;100.00;100144.59;5036521;28;20279;-81
2022/01/31 04:10:56;;;;;;;32.83;7.05;;;;;;;0.75;100.00;100134.75;5036987;28;20036;-81
2022/01/31 04:13:22;;;;;;;31.20;7.40;;;;;;;0.84;100.00;100131.44;5037429;28;20151;-81
2022/01/31 04:15:47;;;;;;;47.70;9.50;;;;;;;0.72;100.00;100120.06;5036963;28;20450;-80
2022/01/31 04:18:13;;;;;;;38.17;6.17;;;;;;;0.66;100.00;100111.84;5038068;28;20390;-80
2022/01/31 04:20:39;;;;;;;44.40;8.10;;;;;;;0.62;100.00;100113.84;5037140;28;20295;-80
2022/01/31 04:23:14;;;;;;;32.35;5.28;;;;;;;0.63;100.00;100126.00;5036969;28;20041;-80
2022/01/31 04:28:20;;;;;;;40.20;7.55;;;;;;;0.41;100.00;100111.84;5055716;28;20041;-80
2022/01/31 04:33:32;;;;;;;29.48;5.85;;;;;;;0.32;100.00;100107.25;5055202;28;20044;-79
2022/01/31 04:35:57;;;;;;;31.53;5.70;;;;;;;0.26;100.00;100097.22;5037314;28;20036;-79
2022/01/31 04:38:23;;;;;;;35.03;5.87;;;;;;;0.11;100.00;100090.47;5037265;28;20063;-80
2022/01/31 04:40:48;;;;;;;52.80;7.90;;;;;;;0.01;100.00;100085.03;5037962;28;20792;-80
2022/01/31 04:43:14;;;;;;;51.65;8.40;;;;;;;-0.01;100.00;100086.94;5037861;28;20021;-80
2022/01/31 04:45:46;;;;;;;42.17;7.43;;;;;;;-0.11;100.00;100078.88;5037485;28;20094;-80
2022/01/31 04:48:14;;;;;;;37.05;7.60;;;;;;;-0.11;100.00;100078.88;5055534;28;20056;-80
2022/01/31 04:50:39;;;;;;;38.33;7.32;;;;;;;-0.19;100.00;100077.75;5036920;28;20033;-80
2022/01/31 04:53:04;;;;;;;52.55;8.48;;;;;;;-0.16;100.00;100080.19;5037187;28;20039;-80
2022/01/31 04:55:30;;;;;;;31.30;8.32;;;;;;;-0.17;100.00;100060.94;5036977;28;20040;-80
2022/01/31 04:57:57;;;;;;;44.70;7.55;;;;;;;-0.21;100.00;100070.00;5036823;28;20498;-80
2022/01/31 05:00:22;;;;;;;;;;;;;;;-0.16;100.00;100061.81;5054875;28;20131;-83
2022/01/31 05:02:47;;;;;;;41.75;8.10;;;;;;;-0.22;100.00;100063.06;5054624;28;20012;-80
2022/01/31 05:05:13;;;;;;;52.80;10.00;;;;;;;-0.28;100.00;100063.50;5036038;28;20083;-79
2022/01/31 05:07:38;;;;;;;43.40;9.50;;;;;;;-0.22;100.00;100065.69;5036218;28;20021;-80
2022/01/31 05:10:04;;;;;;;61.30;10.90;;;;;;;-0.21;100.00;100070.00;5054453;28;20063;-79
2022/01/31 05:12:29;;;;;;;32.97;7.32;;;;;;;-0.23;100.00;100070.13;5036422;28;20279;-80
2022/01/31 05:14:54;;;;;;;36.70;8.77;;;;;;;-0.11;100.00;100067.56;5036673;28;20128;-80
2022/01/31 05:17:20;;;;;;;44.07;11.03;;;;;;;-0.18;100.00;100058.47;5036901;28;20048;-78
2022/01/31 05:19:45;;;;;;;55.43;9.13;;;;;;;-0.17;100.00;100068.81;5035100;28;20720;-78
2022/01/31 05:22:10;;;;;;;36.07;6.50;;;;;;;-0.23;100.00;100062.25;5033691;28;20831;-77
2022/01/31 05:24:36;;;;;;;32.57;7.77;;;;;;;-0.13;100.00;100075.53;5034109;28;20028;-78
2022/01/31 05:27:01;;;;;;;49.10;9.30;;;;;;;-0.11;100.00;100065.78;5034693;28;20283;-77
2022/01/31 05:29:26;;;;;;;40.30;7.03;;;;;;;-0.03;100.00;100066.03;5052040;28;20056;-78
2022/01/31 05:31:55;;;;;;;39.65;7.75;;;;;;;-0.07;100.00;100061.13;5034434;28;20029;-77
2022/01/31 05:34:20;;;;;;;50.40;9.65;;;;;;;-0.12;100.00;100055.38;5034201;28;20128;-78
2022/01/31 05:36:46;;;;;;;30.30;7.75;;;;;;;-0.23;100.00;100040.44;5052253;28;20091;-78
2022/01/31 05:39:12;;;;;;;33.13;8.10;;;;;;;-0.23;100.00;100035.19;5033968;28;20090;-77
2022/01/31 05:41:37;;;;;;;33.35;7.80;;;;;;;-0.24;100.00;100031.69;5033639;28;20041;-77
2022/01/31 05:44:03;;;;;;;42.85;9.05;;;;;;;-0.22;100.00;100018.47;5032300;28;20047;-76
2022/01/31 05:46:28;;;;;;;34.20;7.53;;;;;;;-0.17;100.00;100010.28;5032727;28;20025;-77
2022/01/31 05:48:54;;;;;;;37.50;8.77;;;;;;;-0.18;100.00;100022.56;5050838;28;20215;-77
2022/01/31 05:51:21;;;;;;;44.27;8.73;;;;;;;-0.26;100.00;100007.38;5032516;28;20363;-77
2022/01/31 05:53:48;;;;;;;50.28;9.70;;;;;;;-0.19;100.00;100018.25;5049693;28;20855;-77
2022/01/31 05:56:15;;;;;;;45.35;8.13;;;;;;;-0.25;100.00;100008.22;5031705;28;20033;-77
2022/01/31 05:58:44;;;;;;;36.90;9.70;;;;;;;-0.22;100.00;100013.22;5032777;28;20487;-78
2022/01/31 06:01:09;;;;;;;32.72;8.55;;;;;;;-0.28;100.00;100004.03;5033113;28;20040;-77
2022/01/31 06:03:35;;;;;;;36.33;10.27;;;;;;;-0.20;100.00;100000.84;5032015;28;20095;-78
2022/01/31 06:06:01;;;;;;;43.90;11.00;;;;;;;-0.20;100.00;99992.13;5032106;28;20033;-78
2022/01/31 06:08:27;;;;;;;53.65;8.57;;;;;;;-0.14;100.00;100002.16;5015501;28;20112;-76
2022/01/31 06:10:52;;;;;;;48.33;8.88;;;;;;;-0.20;100.00;100005.25;5015524;28;20116;-77
2022/01/31 06:13:31;;;;;;;43.20;7.72;;;;;;;-0.20;100.00;99997.38;5015938;28;20059;-77
2022/01/31 06:15:56;;;;;;;36.92;10.23;;;;;;;-0.13;100.00;100007.31;5032520;28;20061;-77
2022/01/31 06:18:22;;;;;;;41.53;7.63;;;;;;;-0.17;100.00;100011.09;5033112;28;20449;-77
2022/01/31 06:20:47;;;;;;;48.63;8.88;;;;;;;-0.13;100.00;100012.56;5015776;28;20033;-77
2022/01/31 06:23:12;;;;;;;44.20;8.82;;;;;;;-0.06;100.00;100008.53;5016638;28;20514;-77
2022/01/31 06:25:39;;;;;;;46.22;9.00;;;;;;;-0.18;100.00;100009.44;5016330;28;20116;-77
2022/01/31 06:28:06;;;;;;;48.53;10.73;;;;;;;-0.20;100.00;100006.09;5032050;28;20033;-76
2022/01/31 06:30:33;;;;;;;39.83;8.70;;;;;;;-0.16;100.00;100002.28;5015552;28;20082;-76
2022/01/31 06:32:59;;;;;;;;;;;;;;;-0.15;100.00;99996.09;5016017;28;20028;-77
2022/01/31 06:35:24;;;;;;;33.50;7.68;;;;;;;-0.11;100.00;99989.69;5014551;28;19924;-77
2022/01/31 06:37:53;;;;;;;44.00;7.75;;;;;;;-0.14;100.00;99989.91;5015311;28;20032;-78
2022/01/31 06:40:19;;;;;;;46.13;9.65;;;;;;;-0.10;100.00;99983.47;5031712;28;20040;-77
2022/01/31 06:42:44;;;;;;;41.08;8.65;;;;;;;-0.15;100.00;99976.88;5031558;28;20495;-78
2022/01/31 06:45:10;;;;;;;54.40;9.00;;;;;;;-0.17;100.00;99979.63;5014936;28;20434;-78
2022/01/31 06:47:36;;;;;;;32.42;7.43;;;;;;;-0.10;100.00;99977.38;5049783;28;20171;-76
2022/01/31 06:50:06;;;;;;;48.25;7.43;;;;;;;-0.05;100.00;99977.88;5042084;28;20088;-75
2022/01/31 06:52:34;;;;;;;41.30;8.20;;;;;;;-0.06;100.00;99966.56;5017047;28;20033;-76
2022/01/31 06:55:03;;;;;;;47.08;10.25;;;;;;;-0.13;100.00;99970.56;5024396;28;20033;-76
2022/01/31 06:57:33;;;;;;;31.75;7.75;;;;;;;-0.14;100.00;99968.91;5001213;28;20108;-77
2022/01/31 07:00:00;;;;;;;36.67;8.30;;;;;;;-0.18;100.00;99953.50;5013963;28;20048;-77
2022/01/31 07:02:26;;;;;;;48.88;8.40;;;;;;;-0.19;100.00;99962.31;5012904;28;20029;-77
2022/01/31 07:04:52;;;;;;;44.92;9.18;;;;;;;-0.15;100.00;99967.22;5030376;28;20446;-76
2022/01/31 07:07:17;;;;;;;53.43;10.23;;;;;;;-0.12;100.00;99963.53;5030332;28;20048;-75
2022/01/31 07:09:42;;;;;;;44.40;11.77;;;;;;;-0.20;100.00;99953.63;5014097;28;20278;-77
2022/01/31 07:12:10;;;;;;;34.93;8.77;;;;;;;-0.17;100.00;99953.38;5008453;28;20049;-77
2022/01/31 07:14:35;;;;;;;38.95;7.32;;;;;;;-0.18;100.00;99946.47;5007096;28;20315;-77
2022/01/31 07:17:04;;;;;;;40.13;7.57;;;;;;;-0.12;100.00;99964.38;5011032;28;20071;-78
2022/01/31 07:19:32;;;;;;;56.78;11.98;;;;;;;-0.21;100.00;99949.34;4999416;28;20128;-77
2022/01/31 07:21:58;;;;;;;54.83;10.98;;;;;;;-0.15;100.00;99948.84;5027017;28;20108;-77
2022/01/31 07:26:55;;;;;;;49.53;11.65;;;;;;;-0.08;100.00;99947.44;5028353;28;20498;-78
2022/01/31 07:29:21;;;;;;;47.28;11.13;;;;;;;-0.20;100.00;99931.78;5007252;28;20025;-77
2022/01/31 07:31:48;;;;;;;42.22;9.40;;;;;;;-0.19;100.00;99941.31;5029610;28;20033;-76
2022/01/31 07:34:15;;;;;;;53.22;10.55;;;;;;;-0.17;100.00;99942.06;5018959;28;20022;-77
2022/01/31 07:36:42;;;;;;;49.65;9.27;;;;;;;-0.18;100.00;99938.59;5019349;28;20436;-76
2022/01/31 07:39:07;;;;;;;46.35;9.70;;;;;;;-0.10;100.00;99940.66;5000604;28;20069;-76
2022/01/31 07:41:33;;;;;;;47.45;9.68;;;;;;;-0.18;100.00;99935.97;5019707;28;20083;-76
2022/01/31 07:44:00;;;;;;;42.88;10.07;;;;;;;-0.15;100.00;99924.41;5013437;28;20075;-77
2022/01/31 07:46:26;;;;;;;43.58;9.52;;;;;;;-0.13;100.00;99943.50;5063679;28;20037;-76
2022/01/31 07:48:53;;;;;;;58.78;9.23;;;;;;;-0.11;100.00;99937.19;5029946;28;20029;-76
2022/01/31 07:51:19;;;;;;;70.28;10.65;;;;;;;-0.13;100.00;99933.00;5029903;28;20037;-76
2022/01/31 07:53:45;;;;;;;58.60;9.80;;;;;;;-0.12;100.00;99938.13;5013838;28;20039;-77
2022/01/31 07:56:11;;;;;;;47.35;8.75;;;;;;;-0.08;100.00;99942.19;5030686;28;20441;-77
2022/01/31 07:58:38;;;;;;;40.50;8.40;;;;;;;-0.13;100.00;99936.47;5030650;28;20029;-77
2022/01/31 08:01:04;;;;;;;38.70;8.13;;;;;;;-0.06;100.00;99947.34;5063742;28;20041;-77
2022/01/31 08:03:31;;;;;;;38.83;10.27;;;;;;;-0.06;100.00;99935.06;5030739;28;20053;-77
2022/01/31 08:05:57;;;;;;;53.95;8.48;;;;;;;-0.07;100.00;99933.41;5013552;28;20064;-76
2022/01/31 08:08:23;;;;;;;49.38;8.88;;;;;;;0.04;100.00;99939.63;5030873;28;20036;-77
2022/01/31 08:10:49;;;;;;;36.03;8.35;;;;;;;0.07;100.00;99939.38;5014562;28;20043;-78
2022/01/31 08:13:15;;;;;;;43.58;8.77;;;;;;;0.06;100.00;99935.09;5013800;28;20029;-77
2022/01/31 08:15:49;;;;;;;32.60;7.20;;;;;;;0.14;100.00;99928.34;5013593;28;20433;-77
2022/01/31 08:18:15;;;;;;;49.08;9.60;;;;;;;0.15;100.00;99931.78;5014332;28;20032;-77
2022/01/31 08:20:41;;;;;;;45.47;7.55;;;;;;;0.21;100.00;99928.69;5013388;28;20021;-77
2022/01/31 08:23:08;;;;;;;33.63;7.47;;;;;;;0.11;100.00;99922.47;5013742;28;20428;-77
2022/01/31 08:25:36;;;;;;;41.95;7.60;;;;;;;0.09;100.00;99909.44;5013475;28;20037;-77
2022/01/31 08:28:07;;;;;;;34.75;6.20;;;;;;;0.17;100.00;99917.59;5014062;28;20033;-76
2022/01/31 08:30:41;;;;;;;44.65;8.15;;;;;;;0.12;100.00;99911.03;5063318;28;20550;-78
2022/01/31 08:33:14;;;;;;;48.10;8.45;;;;;;;0.23;100.00;99907.56;5013764;28;20033;-76
2022/01/31 08:35:48;;;;;;;51.60;9.95;;;;;;;0.30;100.00;99920.09;5030127;28;20040;-78
2022/01/31 08:38:16;;;;;;;38.15;7.57;;;;;;;0.24;100.00;99902.22;5030088;28;20036;-77
2022/01/31 08:40:42;;;;;;;33.50;6.95;;;;;;;0.16;100.00;99901.94;5013245;28;20028;-76
2022/01/31 08:43:08;;;;;;;41.22;7.68;;;;;;;0.75;100.00;99928.03;5015229;28;20056;-77
2022/01/31 08:45:35;;;;;;;34.78;6.47;;;;;;;0.53;100.00;99923.59;5016632;28;20079;-77
2022/01/31 08:48:04;;;;;;;49.70;8.75;;;;;;;0.36;100.00;99914.41;5016832;28;20036;-77
2022/01/31 08:50:30;;;;;;;34.45;8.43;;;;;;;0.37;100.00;99921.31;5033501;28;20032;-77
2022/01/31 08:52:56;;;;;;;38.47;7.45;;;;;;;0.51;100.00;99922.06;5017202;28;20029;-77
2022/01/31 08:55:21;;;;;;;40.75;6.18;;;;;;;0.54;100.00;99927.06;5033293;28;20406;-77
2022/01/31 08:57:52;;;;;;;35.60;6.47;;;;;;;1.13;100.00;99939.13;5032919;28;20087;-77
2022/01/31 09:00:19;;;;;;;38.80;8.77;;;;;;;0.51;100.00;99908.91;5016464;28;20080;-76
2022/01/31 09:03:00;;;;;;;38.22;6.65;;;;;;;0.57;100.00;99905.81;5033255;28;20033;-77
2022/01/31 09:05:25;;;;;;;38.97;10.35;;;;;;;0.52;100.00;99897.47;5050558;28;20037;-76
2022/01/31 09:07:51;;;;;;;43.95;7.50;;;;;;;0.69;100.00;99904.03;5050341;28;20032;-76
2022/01/31 09:10:18;;;;;;;43.07;9.53;;;;;;;0.64;100.00;99891.25;5033005;28;20094;-76
2022/01/31 09:12:44;;;;;;;42.08;9.13;;;;;;;0.62;100.00;99882.66;5016175;28;20272;-77
2022/01/31 09:15:12;;;;;;;35.58;8.90;;;;;;;0.76;100.00;99886.84;5033102;28;20035;-76
2022/01/31 09:17:38;;;;;;;51.20;9.35;;;;;;;0.60;100.00;99868.81;5033289;28;20486;-77
2022/01/31 09:20:05;;;;;;;42.58;7.13;;;;;;;0.71;100.00;99873.22;5016741;28;20036;-77
2022/01/31 09:22:30;;;;;;;34.28;7.25;;;;;;;0.71;100.00;99867.97;5016789;28;20033;-78
2022/01/31 09:24:55;;;;;;;52.00;9.30;;;;;;;0.70;100.00;99868.91;5015978;28;20101;-79
2022/01/31 09:27:21;;;;;;;34.03;8.63;;;;;;;0.95;100.00;99875.69;5051140;28;21179;-77
2022/01/31 09:29:46;;;;;;;34.13;7.73;;;;;;;1.22;100.00;99886.63;5016610;28;20071;-77
2022/01/31 09:32:12;;;;;;;52.37;8.20;;;;;;;1.61;100.00;99886.13;5032969;28;20295;-76
2022/01/31 09:34:38;;;;;;;46.95;7.93;;;;;;;1.75;100.00;99885.00;5016217;28;20638;-78
2022/01/31 09:37:05;;;;;;;56.10;8.93;;;;;;;1.18;100.00;99868.59;5016987;28;20036;-79
2022/01/31 09:39:31;;;;;;;36.33;7.85;;;;;;;1.46;100.00;99885.63;5033185;28;20565;-77
2022/01/31 09:41:58;;;;;;;41.08;9.07;;;;;;;1.51;100.00;99875.53;5032860;28;20036;-76
2022/01/31 09:47:07;;;;;;;36.13;9.23;;;;;;;1.45;100.00;99869.00;5032587;28;20068;-76
2022/01/31 09:49:33;;;;;;;36.10;8.25;;;;;;;1.59;100.00;99867.88;5016375;28;20084;-78
2022/01/31 09:51:59;;;;;;;39.40;7.10;;;;;;;1.42;100.00;99852.63;5032713;28;20544;-78
2022/01/31 09:54:27;;;;;;;30.30;7.57;;;;;;;1.57;100.00;99854.00;5013703;28;20052;-78
2022/01/31 09:56:53;;;;;;;51.28;8.80;;;;;;;1.38;100.00;99838.91;5039104;28;20187;-79
2022/01/31 09:59:19;;;;;;;39.53;9.98;;;;;;;1.37;100.00;99824.06;5019601;28;20051;-79
2022/01/31 10:01:52;;;;;;;43.47;8.63;;;;;;;1.26;100.00;99819.69;5053720;23;20045;-79
2022/01/31 10:04:23;;;;;;;32.08;9.65;;;;;;;1.44;100.00;99834.91;5028933;28;20045;-79
2022/01/31 10:06:52;;;;;;;33.88;7.68;;;;;;;1.14;100.00;99825.94;5012732;28;20052;-79
2022/01/31 10:09:28;;;;;;;28.05;7.97;;;;;;;1.12;100.00;99838.38;5029678;28;20052;-80
2022/01/31 10:12:11;;;;;;;33.83;9.52;;;;;;;1.20;100.00;99835.97;5046913;28;20433;-79
2022/01/31 10:17:40;;;;;;;40.20;9.43;;;;;;;1.48;100.00;99844.22;5049289;28;20409;-80
2022/01/31 10:20:14;;;;;;;43.15;10.15;;;;;;;1.32;100.00;99839.38;5049242;28;20033;-79
2022/01/31 10:22:41;;;;;;;39.67;8.60;;;;;;;1.13;100.00;99824.28;5050739;28;20043;-78
2022/01/31 10:25:09;;;;;;;36.40;8.85;;;;;;;1.10;100.00;99823.69;5032735;28;20589;-79
2022/01/31 10:27:36;;;;;;;32.22;9.23;;;;;;;1.30;100.00;99846.56;5033227;28;20048;-79
2022/01/31 10:30:07;;;;;;;34.58;9.20;;;;;;;1.25;100.00;99856.63;5050799;28;20091;-79
2022/01/31 10:32:36;;;;;;;36.20;9.52;;;;;;;1.48;100.00;99867.91;5048980;28;20163;-80
2022/01/31 10:35:06;;;;;;;31.90;8.27;;;;;;;1.68;100.00;99877.59;5029178;28;20799;-79
2022/01/31 10:37:34;;;;;;;45.75;10.05;;;;;;;1.72;100.00;99887.91;5028791;28;20040;-79
2022/01/31 10:54:25;;;;;;;34.67;8.57;;;;;;;1.57;100.00;99880.31;5045239;28;20399;-80
2022/01/31 10:56:59;;;;;;;34.35;9.77;;;;;;;1.21;100.00;99873.59;5045537;28;20044;-80
2022/01/31 10:59:32;;;;;;;36.08;9.35;;;;;;;1.44;100.00;99893.63;5045382;28;20048;-80
2022/01/31 11:02:00;;;;;;;45.33;8.55;;;;;;;1.67;100.00;99904.91;5045682;28;20116;-80
2022/01/31 11:04:34;;;;;;;39.00;12.48;;;;;;;1.53;100.00;99896.47;5044600;28;20545;-80
2022/01/31 11:07:12;;;;;;;37.28;10.98;;;;;;;1.50;100.00;99892.31;5030095;28;20043;-80
2022/01/31 11:09:39;;;;;;;41.97;10.93;;;;;;;1.46;100.00;99898.75;5045524;28;20048;-80
2022/01/31 11:12:06;;;;;;;34.55;9.55;;;;;;;1.74;100.00;99904.41;5026031;28;20029;-80
2022/01/31 11:14:33;;;;;;;38.75;9.40;;;;;;;1.64;100.00;99892.00;5032007;28;20486;-80
2022/01/31 11:17:08;;;;;;;31.73;9.82;;;;;;;1.76;100.00;99891.97;5032052;28;20029;-80
2022/01/31 11:19:34;;;;;;;38.33;8.98;;;;;;;1.51;100.00;99882.59;5049416;28;20563;-80
2022/01/31 11:22:04;;;;;;;24.80;8.95;;;;;;;1.68;100.00;99880.25;5049223;28;20498;-81
2022/01/31 11:24:35;;;;;;;39.65;9.77;;;;;;;1.64;100.00;99891.19;5031849;28;20509;-80
2022/01/31 11:27:11;;;;;;;31.77;8.63;;;;;;;1.54;100.00;99903.38;5049005;28;20131;-79
2022/01/31 11:29:41;;;;;;;34.90;9.52;;;;;;;1.65;100.00;99909.44;5049008;28;20048;-79
2022/01/31 11:32:14;;;;;;;21.13;8.77;;;;;;;1.59;100.00;99912.59;5050133;28;20036;-80
2022/01/31 11:34:42;;;;;;;26.77;9.20;;;;;;;1.72;100.00;99914.22;5032164;28;20682;-79
2022/01/31 11:37:09;;;;;;;29.35;9.00;;;;;;;1.94;100.00;99915.91;5032572;28;20068;-79
2022/01/31 11:39:36;;;;;;;30.33;9.52;;;;;;;2.01;100.00;99909.16;5049916;28;20033;-79
2022/01/31 11:42:04;;;;;;;30.95;9.82;;;;;;;2.19;100.00;99906.78;5031838;28;20140;-79
2022/01/31 11:44:38;;;;;;;32.83;11.13;;;;;;;2.19;100.00;99904.16;5048861;28;20033;-79
2022/01/31 11:47:06;;;;;;;33.53;9.15;;;;;;;2.36;100.00;99911.47;5049724;28;20090;-78
2022/01/31 11:49:55;;;;;;;32.28;9.13;;;;;;;2.50;100.00;99910.28;5048864;28;20032;-80
2022/01/31 11:52:21;;;;;;;47.63;10.40;;;;;;;2.38;100.00;99896.38;5032783;28;20512;-79